• Join FlightAware (Why Join?)
  • Login
  • US Flag 
02:12PM EDT


 

Airport Tracker/Info


-or-


 

Live Flight TrackerFlight Track Log ✈ XOJ552 ✈ 05-Feb-2014 ✈ KPVU - KFLL

Flight Track Log - Related Links

Times and Time Zones

All times are in EST time to prevent confusion due to time zone crossing. See the XOJ552 flight status page for this flight to view local times or setup timezone preferences in your user account.

Time Position Orientation Groundspeed Altitude Reporting Facility
EST Latitude Longitude Course Direction KTS MPH feet Rate Location/Type
12:11PM 40.2086 -111.7231 165° South 148 170 5,300  Level Salt Lake Center
12:11PM 40.1922 -111.7172 165° South 186 214 6,300 4,020 Climbing Salt Lake Center
12:12PM 40.1808 -111.7775 256° West 222 255 10,200 3,660 Climbing Salt Lake Center
12:13PM 40.1897 -111.8081 291° West 234 269 11,700 1,800 Climbing Salt Lake Center
12:14PM 40.2239 -111.8989 296° West 290 334 13,100 660 Climbing Salt Lake Center
12:15PM 40.1625 -111.9703 222° Southwest 345 397 13,100 420 Level Salt Lake Center
12:16PM 40.0683 -111.9342 164° South 352 405 14,000 480 Climbing Salt Lake Center
12:17PM 39.9506 -111.8908 164° South 365 420 14,100 1,320 Climbing Salt Lake Center
12:18PM 39.8522 -111.8572 165° South 367 422 16,800 2,820 Climbing Salt Lake Center
12:19PM 39.7508 -111.8206 164° South 378 435 20,000 2,040 Climbing Salt Lake Center
12:20PM 39.6881 -111.6906 122° Southeast 447 514 21,000 780 Climbing Salt Lake Center
12:21PM 39.6419 -111.5408 112° Southeast 451 519 21,600 1,020 Climbing Salt Lake Center
12:22PM 39.5925 -111.3906 113° Southeast 453 521 23,200 1,680 Climbing Salt Lake Center
12:23PM 39.5439 -111.2342 112° Southeast 453 521 25,100 2,160 Climbing Salt Lake Center
12:24PM 39.4894 -111.0619 112° Southeast 460 529 27,700 2,040 Climbing Salt Lake Center
12:25PM 39.4397 -110.9114 113° Southeast 472 543 29,400 1,680 Climbing Salt Lake Center
12:26PM 39.3819 -110.7303 112° Southeast 485 558 31,200 1,560 Climbing Salt Lake Center
12:27PM 39.3292 -110.5728 113° Southeast 495 570 32,700 1,500 Climbing Salt Lake Center
12:28PM 39.2678 -110.3889 113° Southeast 500 575 34,400 1,440 Climbing Salt Lake Center
12:29PM 39.2153 -110.2297 113° Southeast 504 580 35,700 1,260 Climbing Salt Lake Center
12:30PM 39.1533 -110.0444 113° Southeast 504 580 37,000 1,140 Climbing Salt Lake Center
12:31PM 39.0986 -109.8842 114° Southeast 510 587 38,100 1,080 Climbing Salt Lake Center
12:32PM 39.0361 -109.6983 113° Southeast 505 581 39,400 960 Climbing Denver Center
12:33PM 38.9808 -109.5397 114° Southeast 507 583 40,200 720 Climbing Denver Center
12:34PM 38.9183 -109.3564 114° Southeast 505 581 41,000 360 Climbing Denver Center
12:35PM 38.8642 -109.1981 114° Southeast 508 585 41,000  Level Denver Center
12:36PM 38.7981 -109.0058 114° Southeast 527 606 41,000  Level Denver Center
12:37PM 38.7408 -108.8397 114° Southeast 534 615 41,000  Level Denver Center
12:38PM 38.6733 -108.6464 114° Southeast 535 616 41,000  Level Denver Center
12:39PM 38.6150 -108.4825 114° Southeast 532 612 41,000  Level Denver Center
12:41PM 38.5469 -108.2906 114° Southeast 532 612 41,000  Level Denver Center
12:42PM 38.4883 -108.1258 114° Southeast 533 613 41,000  Level Denver Center
12:43PM 38.4186 -107.9356 115° Southeast 532 612 41,000  Level Denver Center
12:44PM 38.3600 -107.7708 114° Southeast 533 613 41,000  Level Denver Center
12:45PM 38.2900 -107.5819 115° Southeast 531 611 41,000  Level Denver Center
12:46PM 38.2311 -107.4189 115° Southeast 529 609 41,000  Level Denver Center
12:47PM 38.1606 -107.2303 115° Southeast 531 611 41,000  Level Denver Center
12:48PM 38.1025 -107.0725 115° Southeast 526 605 41,000  Level Denver Center
12:49PM 38.0331 -106.8794 114° Southeast 530 610 41,000  Level Denver Center
12:50PM 37.9733 -106.7200 115° Southeast 525 604 41,000  Level Denver Center
12:51PM 37.9136 -106.5611 115° Southeast 524 603 41,000  Level Denver Center
12:52PM 37.8450 -106.3819 116° Southeast 522 601 41,000  Level Denver Center
12:53PM 37.7814 -106.2194 116° Southeast 521 600 41,000  Level Denver Center
12:54PM 37.7128 -106.0406 116° Southeast 522 601 41,000  Level Denver Center
12:56PM 37.6028 -105.7492 115° Southeast 508 585 41,000  Level Albuquerque Center
12:57PM 37.5317 -105.5661 116° Southeast 518 596 41,000  Level Albuquerque Center
12:58PM 37.4697 -105.4078 116° Southeast 524 603 41,000  Level Albuquerque Center
12:59PM 37.3975 -105.2244 116° Southeast 525 604 41,000  Level Albuquerque Center
01:00PM 37.3361 -105.0672 116° Southeast 523 602 41,000  Level Albuquerque Center
01:01PM 37.2522 -104.8592 117° Southeast 526 605 41,000  Level Denver Center
01:02PM 37.1800 -104.6761 116° Southeast 526 605 41,000  Level Denver Center
01:03PM 37.1172 -104.5214 117° Southeast 524 603 41,000  Level Denver Center
01:04PM 37.0433 -104.3372 117° Southeast 530 610 41,000  Level Denver Center
01:05PM 36.9900 -104.2067 117° Southeast 529 609 41,000  Level Albuquerque Center
01:06PM 36.9261 -104.0494 117° Southeast 531 611 41,000  Level Albuquerque Center
01:07PM 36.8511 -103.8658 117° Southeast 532 612 41,000  Level Albuquerque Center
01:08PM 36.7856 -103.7092 118° Southeast 533 613 41,000  Level Albuquerque Center
01:09PM 36.7100 -103.5253 117° Southeast 534 615 41,000  Level Albuquerque Center
01:10PM 36.6403 -103.3603 118° Southeast 533 613 41,000  Level Albuquerque Center
01:11PM 36.5706 -103.1942 118° Southeast 534 615 41,000  Level Albuquerque Center
01:12PM 36.5031 -103.0319 117° Southeast 529 609 41,000  Level Albuquerque Center
01:13PM 36.4403 -102.8817 117° Southeast 531 611 41,000  Level Albuquerque Center
01:14PM 36.3575 -102.6892 118° Southeast 529 609 41,000  Level Albuquerque Center
01:15PM 36.2883 -102.5286 118° Southeast 528 608 41,000  Level Albuquerque Center
01:16PM 36.2194 -102.3689 118° Southeast 527 606 41,000  Level Albuquerque Center
01:17PM 36.1508 -102.2075 118° Southeast 529 609 41,000  Level Albuquerque Center
01:19PM 36.0806 -102.0464 118° Southeast 530 610 41,000  Level Albuquerque Center
01:20PM 36.0108 -101.8856 118° Southeast 531 611 41,000  Level Albuquerque Center
01:21PM 35.9258 -101.6897 118° Southeast 536 617 41,000  Level Albuquerque Center
01:22PM 35.8547 -101.5278 118° Southeast 535 616 41,000  Level Albuquerque Center
01:23PM 35.7822 -101.3650 119° Southeast 537 618 41,000  Level Albuquerque Center
01:24PM 35.7100 -101.2017 119° Southeast 539 620 41,000  Level Albuquerque Center
01:25PM 35.6369 -101.0386 119° Southeast 541 623 41,000  Level Albuquerque Center
01:26PM 35.5653 -100.8769 119° Southeast 538 619 41,000  Level Albuquerque Center
01:27PM 35.4931 -100.7153 119° Southeast 539 620 41,000  Level Albuquerque Center
01:28PM 35.4103 -100.5347 119° Southeast 541 623 41,000  Level Albuquerque Center
01:29PM 35.3361 -100.3731 119° Southeast 543 625 41,000  Level Albuquerque Center
01:30PM 35.2631 -100.2142 119° Southeast 540 621 41,000  Level Albuquerque Center
01:31PM 35.1883 -100.0522 119° Southeast 544 626 41,000  Level Albuquerque Center
01:32PM 35.1008 -99.8597 119° Southeast 542 624 41,000  Level Albuquerque Center
01:33PM 35.0256 -99.7006 120° Southeast 543 625 41,000  Level Albuquerque Center
01:34PM 34.9217 -99.4786 120° Southeast 542 624 41,000  Level Fort Worth Center
01:35PM 34.8475 -99.3203 120° Southeast 539 620 41,000  Level Fort Worth Center
01:36PM 34.7728 -99.1628 120° Southeast 539 620 41,000  Level Fort Worth Center
01:37PM 34.6978 -99.0058 120° Southeast 539 620 41,000  Level Fort Worth Center
01:39PM 34.6233 -98.8483 120° Southeast 539 620 41,000  Level Fort Worth Center
01:40PM 34.5325 -98.6597 120° Southeast 538 619 41,000  Level Fort Worth Center
01:41PM 34.4581 -98.5022 120° Southeast 539 620 41,000  Level Fort Worth Center
01:42PM 34.3808 -98.3447 121° Southeast 534 615 41,000  Level Fort Worth Center
01:43PM 34.3006 -98.1819 121° Southeast 531 611 41,000  Level Fort Worth Center
01:44PM 34.2308 -98.0386 120° Southeast 533 613 41,000  Level Fort Worth Center
01:45PM 34.1561 -97.8858 121° Southeast 532 612 41,000  Level Fort Worth Center
01:46PM 34.0753 -97.7164 120° Southeast 538 619 41,000  Level Fort Worth Center
01:47PM 33.9986 -97.5619 121° Southeast 538 619 41,000  Level Fort Worth Center
01:48PM 33.9225 -97.4064 120° Southeast 537 618 41,000  Level Fort Worth Center
01:49PM 33.8308 -97.2231 121° Southeast 533 613 41,000  Level Fort Worth Center
01:50PM 33.7539 -97.0692 121° Southeast 535 616 41,000  Level Fort Worth Center
01:51PM 33.6769 -96.9158 121° Southeast 534 615 41,000  Level Fort Worth Center
01:52PM 33.5992 -96.7631 121° Southeast 533 613 41,000  Level Fort Worth Center
01:53PM 33.5219 -96.6108 121° Southeast 533 613 41,000  Level Fort Worth Center
01:54PM 33.4447 -96.4600 122° Southeast 530 610 41,000  Level Fort Worth Center
01:55PM 33.3675 -96.3094 122° Southeast 530 610 41,000  Level Fort Worth Center
01:56PM 33.2761 -96.1297 121° Southeast 524 603 41,000  Level Fort Worth Center
01:57PM 33.1986 -95.9800 122° Southeast 527 606 41,000  Level Fort Worth Center
01:58PM 33.1206 -95.8306 122° Southeast 529 609 41,000  Level Fort Worth Center
01:59PM 33.0439 -95.6817 122° Southeast 526 605 41,000  Level Fort Worth Center
02:00PM 32.9667 -95.5342 122° Southeast 526 605 41,000  Level Fort Worth Center
02:01PM 32.8897 -95.3867 122° Southeast 525 604 41,000  Level Fort Worth Center
02:02PM 32.7964 -95.2100 122° Southeast 526 605 41,000  Level Fort Worth Center
02:03PM 32.7183 -95.0642 122° Southeast 525 604 41,000  Level Fort Worth Center
02:04PM 32.6411 -94.9161 122° Southeast 527 606 41,000  Level Fort Worth Center
02:05PM 32.5625 -94.7692 122° Southeast 526 605 41,000  Level Fort Worth Center
02:06PM 32.4775 -94.6078 122° Southeast 528 608 41,000  Level Fort Worth Center
02:08PM 32.4064 -94.4786 123° Southeast 516 594 41,000  Level Fort Worth Center
02:09PM 32.3128 -94.3053 123° Southeast 518 596 41,000  Level Fort Worth Center
02:10PM 32.2339 -94.1603 123° Southeast 520 598 41,000  Level Fort Worth Center
02:11PM 32.1569 -94.0169 122° Southeast 517 595 41,000  Level Fort Worth Center
02:12PM 32.0789 -93.8736 123° Southeast 516 594 41,000  Level Fort Worth Center
02:12PM 32.0242 -93.7767 124° Southeast 518 596 41,000  Level Houston Center
02:13PM 31.9444 -93.6350 124° Southeast 521 600 41,000  Level Houston Center
02:14PM 31.8664 -93.4908 122° Southeast 523 602 41,000  Level Houston Center
02:15PM 31.7861 -93.3472 123° Southeast 527 606 41,000  Level Houston Center
02:16PM 31.6967 -93.1858 123° Southeast 525 604 41,000  Level Houston Center
02:17PM 31.6164 -93.0425 123° Southeast 524 603 41,000  Level Houston Center
02:19PM 31.5367 -92.9006 123° Southeast 523 602 41,000  Level Houston Center
02:20PM 31.4569 -92.7589 123° Southeast 520 598 41,000  Level Houston Center
02:21PM 31.3617 -92.5892 123° Southeast 521 600 41,000  Level Houston Center
02:22PM 31.2806 -92.4481 124° Southeast 522 601 41,000  Level Houston Center
02:23PM 31.2017 -92.3081 123° Southeast 518 596 41,000  Level Houston Center
02:24PM 31.1219 -92.1686 124° Southeast 515 593 41,000  Level Houston Center
02:25PM 31.0322 -92.0119 124° Southeast 508 585 41,000  Level Houston Center
02:26PM 30.9533 -91.8753 124° Southeast 507 583 41,000  Level Houston Center
02:27PM 30.8747 -91.7394 124° Southeast 507 583 41,000  Level Houston Center
02:28PM 30.7953 -91.6039 124° Southeast 507 583 41,000  Level Houston Center
02:29PM 30.7167 -91.4664 124° Southeast 510 587 41,000  Level Houston Center
02:30PM 30.6275 -91.3156 124° Southeast 511 588 41,000  Level Houston Center
02:31PM 30.5475 -91.1786 124° Southeast 513 590 41,000  Level Houston Center
02:32PM 30.4683 -91.0403 124° Southeast 517 595 41,000  Level Houston Center
02:33PM 30.3886 -90.9044 124° Southeast 512 589 41,000  Level Houston Center
02:34PM 30.2917 -90.7400 124° Southeast 518 596 41,000  Level Houston Center
02:35PM 30.2097 -90.6028 125° Southeast 519 597 41,000  Level Houston Center
02:36PM 30.1264 -90.4661 125° Southeast 523 602 41,000  Level Houston Center
02:37PM 30.0456 -90.3292 124° Southeast 521 600 41,000 -60 Level Houston Center
02:38PM 29.9633 -90.1914 125° Southeast 525 604 40,900  Descending Houston Center
02:39PM 29.8644 -90.0306 125° Southeast 519 597 41,000  Climbing Houston Center
02:40PM 29.7769 -89.9033 128° Southeast 513 590 41,000  Level Houston Center
02:41PM 29.6864 -89.7822 131° Southeast 506 582 41,000  Level Houston Center
02:42PM 29.5964 -89.6586 130° Southeast 507 583 41,000  Level Houston Center
02:43PM 29.4897 -89.5103 130° Southeast 505 581 41,000  Level Houston Center
02:44PM 29.3992 -89.3894 131° Southeast 502 578 41,000  Level Houston Center
02:45PM 29.3103 -89.2683 130° Southeast 500 575 41,000  Level Houston Center
02:46PM 29.2197 -89.1489 131° Southeast 498 573 41,000  Level Houston Center
02:48PM 29.1314 -89.0308 131° Southeast 493 567 41,000  Level Houston Center
02:49PM 29.0419 -88.9117 131° Southeast 493 567 41,000  Level Houston Center
02:50PM 28.9358 -88.7703 131° Southeast 490 564 41,000  Level Houston Center
02:51PM 28.8656 -88.6333 120° Southeast 504 580 41,000  Level Houston Center
02:52PM 28.8214 -88.4778 108° East 513 590 41,000  Level Houston Center
02:53PM 28.7783 -88.3192 107° East 522 601 41,000  Level Houston Center
02:54PM 28.7342 -88.1619 108° East 523 602 41,000  Level Houston Center
02:55PM 28.6864 -87.9922 108° East 524 603 41,000  Level Houston Center
02:56PM 28.6414 -87.8353 108° East 523 602 41,000  Level Houston Center
02:57PM 28.5883 -87.6481 108° East 521 600 41,000  Level Houston Center
02:58PM 28.5442 -87.4933 108° East 518 596 41,000  Level Houston Center
02:59PM 28.4989 -87.3375 108° East 520 598 41,000  Level Houston Center
03:00PM 28.4544 -87.1811 108° East 521 600 41,000  Level Houston Center
03:01PM 28.4144 -87.0508 109° East 509 586 41,000  Level Jacksonville Center
03:02PM 28.3714 -86.8956 107° East 509 586 41,000  Level Jacksonville Center
03:03PM 28.3239 -86.7406 109° East 509 586 41,000  Level Jacksonville Center
03:04PM 28.2803 -86.5906 108° East 509 586 41,000  Level Jacksonville Center
03:05PM 28.2347 -86.4333 108° East 515 593 41,000  Level Jacksonville Center
03:06PM 28.1869 -86.2764 109° East 515 593 41,000  Level Jacksonville Center
03:07PM 28.1428 -86.1217 108° East 505 581 41,000  Level Jacksonville Center
03:08PM 28.0967 -85.9628 108° East 510 587 41,000  Level Jacksonville Center
03:09PM 28.0539 -85.8275 110° East 511 588 41,000  Level Jacksonville Center
03:10PM 28.0053 -85.6708 109° East 511 588 41,000  Level Jacksonville Center
03:11PM 27.9328 -85.4164 108° East 533 613 41,000  Level Miami Center
03:12PM 27.8919 -85.2633 107° East 525 604 41,000  Level Miami Center
03:13PM 27.8619 -85.0994 102° East 525 604 41,000  Level Miami Center
03:14PM 27.8286 -84.9492 104° East 532 612 41,000  Level Miami Center
03:15PM 27.8022 -84.7903 101° East 532 612 41,000 -360 Level Miami Center
03:16PM 27.7478 -84.6389 112° Southeast 527 606 40,300 -1,140 Descending Miami Center
03:17PM 27.6956 -84.4856 111° Southeast 522 601 38,800 -1,500 Descending Miami Center
03:18PM 27.6428 -84.3392 112° Southeast 516 594 37,300 -1,500 Descending Miami Center
03:19PM 27.5939 -84.1981 111° Southeast 496 571 35,800 -1,500 Descending Miami Center
03:20PM 27.5444 -84.0592 112° Southeast 484 557 34,300 -1,440 Descending Miami Center
03:21PM 27.4931 -83.9178 112° Southeast 484 557 33,000 -720 Descending Miami Center
03:22PM 27.4417 -83.7769 112° Southeast 484 557 32,900 -600 Descending Miami Center
03:23PM 27.3939 -83.6383 111° Southeast 484 557 31,900 -960 Descending Miami Center
03:24PM 27.3403 -83.4928 112° Southeast 490 564 31,000 -480 Descending Miami Center
03:25PM 27.2925 -83.3478 110° East 490 564 31,000  Level Miami Center
03:26PM 27.2406 -83.2025 112° Southeast 490 564 31,000 -300 Level Miami Center
03:27PM 27.1844 -83.0569 113° Southeast 495 570 30,400 -1,020 Descending Miami Center
03:28PM 27.1342 -82.9144 112° Southeast 495 570 29,000 -1,440 Descending Miami Center
03:29PM 27.0836 -82.7742 112° Southeast 490 564 27,600 -1,440 Descending Miami Center
03:30PM 27.0325 -82.6411 113° Southeast 479 551 26,200 -1,320 Descending Miami Center
03:31PM 26.9914 -82.5203 111° Southeast 474 545 25,000 -1,140 Descending Miami Center
03:32PM 26.9386 -82.3781 113° Southeast 458 527 24,000 -540 Descending Miami Center
03:33PM 26.8889 -82.2500 114° Southeast 446 513 24,000  Level Miami Center
03:34PM 26.8375 -82.1175 113° Southeast 451 519 24,000  Level Miami Center
03:35PM 26.7900 -81.9872 112° Southeast 451 519 24,000 -840 Level Miami Center
03:36PM 26.7422 -81.8575 112° Southeast 456 525 22,400 -1,920 Descending Miami Center
03:37PM 26.7006 -81.7372 111° Southeast 433 498 20,200 -1,740 Descending Miami Center
03:38PM 26.6897 -81.6250 96° East 387 445 19,000 -600 Descending Miami Center
03:39PM 26.7161 -81.5122 75° East 347 399 19,000  Level Miami Center
03:40PM 26.7425 -81.4064 74° East 347 399 19,000 -360 Level Miami Center
03:41PM 26.7667 -81.3003 76° East 354 407 18,300 -600 Descending Miami Center
03:42PM 26.7906 -81.2011 75° East 342 394 17,800 -420 Descending Miami Center
03:43PM 26.8072 -81.1344 74° East 330 380 17,500 -900 Descending Miami Center
03:44PM 26.8622 -81.0364 58° Northeast 398 458 16,100 -720 Descending Miami Center
03:45PM 26.9169 -81.0894 319° Northwest 240 276 16,100  Level Miami Center
03:46PM 26.9081 -81.1800 264° West 221 254 16,100  Level Miami Center
03:47PM 26.8992 -81.2728 264° West 269 310 16,100 -240 Level Miami Center
03:48PM 26.8633 -81.3458 241° Southwest 280 322 15,700 -720 Descending Miami Center
03:49PM 26.7978 -81.3061 152° Southeast 193 222 14,700 -840 Descending Miami Center
03:50PM 26.8047 -81.2133 85° East 202 232 14,100 -300 Descending Miami Center
03:51PM 26.8139 -81.1206 84° East 259 298 14,100  Level Miami Center
03:52PM 26.8308 -81.0422 76° East 295 339 14,100  Level Miami Center
03:53PM 26.9058 -81.0494 355° North 222 255 14,100  Level Miami Center
03:54PM 26.9053 -81.1356 270° West 163 188 14,100  Level Miami Center
03:55PM 26.8964 -81.2236 264° West 243 280 14,100  Level Miami Center
03:56PM 26.8875 -81.3094 263° West 279 321 14,100  Level Miami Center
03:57PM 26.8786 -81.3978 264° West 285 328 14,100  Level Miami Center
03:58PM 26.8672 -81.4928 262° West 290 334 14,100  Level Miami Center
03:59PM 26.8017 -81.5181 199° South 235 270 14,100  Level Miami Center
04:00PM 26.7833 -81.4381 104° East 146 168 14,100  Level Miami Center
04:01PM 26.7922 -81.3500 84° East 235 270 14,100  Level Miami Center
04:02PM 26.8522 -81.3036 35° Northeast 249 287 14,100  Level Miami Center
04:03PM 26.8814 -81.3697 296° West 168 193 14,100  Level Miami Center
04:04PM 26.8275 -81.4306 225° Southwest 179 206 14,100  Level Miami Center
04:05PM 26.7711 -81.4936 225° Southwest 246 283 14,100  Level Miami Center
04:06PM 26.7169 -81.5517 224° Southwest 268 308 14,100  Level Miami Center
04:07PM 26.6586 -81.6122 223° Southwest 281 323 14,100  Level Miami Center
04:08PM 26.6008 -81.6611 217° Southwest 281 323 14,100  Level Miami Center
04:09PM 26.5239 -81.6508 173° South 265 305 14,100  Level Miami Center
04:10PM 26.4367 -81.6358 171° South 271 312 14,100  Level Miami Center
04:11PM 26.3639 -81.6258 173° South 282 325 14,100  Level Miami Center
04:12PM 26.2850 -81.6133 172° South 287 330 14,100  Level Miami Center
04:13PM 26.2372 -81.5444 128° Southeast 266 306 14,100  Level Miami Center
04:14PM 26.2106 -81.4578 109° East 281 323 14,100 -540 Level Miami Center
04:15PM 26.1903 -81.3689 104° East 295 339 13,100 -1,140 Descending Miami Center
04:16PM 26.1722 -81.2803 103° East 295 339 11,900 -1,380 Descending Miami Center
04:17PM 26.1583 -81.1850 99° East 296 341 10,400 -1,620 Descending Miami Center
04:17PM 26.1628 -81.1806 42° Northeast 295 339 10,300 -1,500 Descending Miami Center
04:18PM 26.1572 -81.1503 102° East 294 338 9,800 -1,500 Descending Miami Center
04:18PM 26.1694 -81.0928 77° East 295 339 8,800 -1,620 Descending Miami Center
04:19PM 26.1706 -81.0558 88° East 291 335 8,200 -840 Descending Miami Center
04:19PM 26.1864 -81.0125 68° East 289 333 8,000 -240 Descending Miami Center
04:20PM 26.1936 -80.9733 78° East 276 318 8,000  Level Miami Center
04:20PM 26.2053 -80.9319 73° East 284 327 8,000  Level Miami Center
04:21PM 26.2128 -80.8861 80° East 282 325 8,000  Level Miami Center
04:21PM 26.2286 -80.8494 64° Northeast 278 320 8,000 -300 Level Miami Center
04:22PM 26.2361 -80.8033 80° East 280 322 7,700 -1,140 Descending Miami Center
04:22PM 26.2453 -80.7667 74° East 278 320 6,900 -1,620 Descending Miami Center
04:23PM 26.2550 -80.7231 76° East 272 313 6,100 -1,620 Descending Miami Center
04:23PM 26.2664 -80.6769 75° East 278 320 5,300 -1,140 Descending Miami Center
04:24PM 26.2758 -80.6450 72° East 264 304 5,000 -300 Descending Miami Center
04:24PM 26.2767 -80.6125 88° East 257 296 5,000  Level Miami Center
04:25PM 26.2839 -80.5686 80° East 224 258 5,000  Level Miami Center
04:25PM 26.2700 -80.5428 121° Southeast 210 242 5,000  Level Miami Center
04:26PM 26.2411 -80.5256 152° Southeast 211 243 5,000 -120 Level Miami Center
04:26PM 26.2289 -80.5136 139° Southeast 179 206 4,900 -900 Descending Miami Center
04:27PM 26.1897 -80.4939 156° South 216 249 4,100 -600 Descending Miami Center
04:28PM 26.1425 -80.4603 147° Southeast 177 204 4,000 -60 Descending Miami Center
04:29PM 26.0928 -80.4472 167° South 178 205 4,000  Level Miami Center
04:30PM 26.0472 -80.4342 166° South 178 205 4,000  Level Miami Center
04:31PM 26.0228 -80.4011 129° Southeast 187 215 4,000 -300 Level Miami Center
04:32PM 26.0283 -80.3411 84° East 190 219 3,500 -900 Descending Miami Center
04:33PM 26.0528 -80.2864 64° Northeast 188 216 2,200 -1,140 Descending Miami Center
04:34PM 26.0747 -80.2383 63° Northeast 157 181 1,300 -840 Descending Miami Center
04:35PM 26.0736 -80.1992 92° East 124 143 600 -720 Descending Miami Center
04:37PM 26.0667 -80.1500 180° South  Level FlightAware Approximate
04:44PM 26.0726 -80.1527 180° South  Level Estimated
04:45PM 26.0667 -80.1500 180° South  Level FlightAware Approximate
04:46PM 26.0726 -80.1527 180° South  Level Estimated